Time;durP1;ratioP1;P1;durP2;ratioP2;P2;SDS_P1;SDS_P2;PMS_P1;PMS_P2;Temp;Humidity;BMP_temperature;BMP_pressure;BME280_temperature;BME280_humidity;BME280_pressure;Samples;Min_cycle;Max_cycle;Signal;HPM_P1;HPM_P2
2023/12/15 00:01:03;;;;;;;;;;;13.40;99.90;;;;;;5113403;28;19911;-75
2023/12/15 00:03:30;;;;;;;;;;;13.30;99.90;;;;;;5113422;28;20055;-70
2023/12/15 00:05:57;;;;;;;;;;;13.30;99.90;;;;;;5113687;28;19999;-74
2023/12/15 00:08:23;;;;;;;;;;;13.30;99.90;;;;;;5113116;28;20020;-74
2023/12/15 00:10:52;;;;;;;;;;;13.20;99.90;;;;;;5112423;28;20223;-74
2023/12/15 00:13:18;;;;;;;;;;;13.20;99.90;;;;;;5113151;28;20007;-74
2023/12/15 00:15:43;;;;;;;;;;;13.20;99.90;;;;;;5113199;28;20327;-74
2023/12/15 00:18:09;;;;;;;;;;;13.20;99.90;;;;;;5114228;28;19914;-72
2023/12/15 00:20:35;;;;;;;;;;;13.10;99.90;;;;;;5112037;28;20310;-74
2023/12/15 00:23:01;;;;;;;;;;;13.10;99.90;;;;;;5113337;28;19931;-75
2023/12/15 00:25:26;;;;;;;;;;;13.10;99.90;;;;;;5113084;28;19907;-74
2023/12/15 00:27:52;;;;;;;;;;;13.10;99.90;;;;;;5112775;28;19998;-74
2023/12/15 00:30:18;;;;;;;;;;;13.10;99.90;;;;;;5094236;28;20014;-75
2023/12/15 00:32:44;;;;;;;;;;;13.00;99.90;;;;;;5112510;28;19943;-74
2023/12/15 00:35:10;;;;;;;;;;;13.00;99.90;;;;;;5094389;28;19919;-74
2023/12/15 00:37:36;;;;;;;;;;;13.00;99.90;;;;;;5112784;28;19912;-74
2023/12/15 00:40:02;;;;;;;;;;;13.00;99.90;;;;;;5112830;28;19927;-76
2023/12/15 00:42:27;;;;;;;;;;;13.00;99.90;;;;;;5112448;28;19915;-75
2023/12/15 00:44:55;;;;;;;;;;;12.90;99.90;;;;;;5112756;28;19907;-73
2023/12/15 00:47:21;;;;;;;;;;;12.90;99.90;;;;;;5112421;28;19998;-74
2023/12/15 00:49:47;;;;;;;;;;;12.90;99.90;;;;;;5112471;28;20360;-74
2023/12/15 00:52:12;;;;;;;;;;;12.80;99.90;;;;;;5112293;28;19943;-73
2023/12/15 00:54:38;;;;;;;;;;;12.80;99.90;;;;;;5112435;28;19951;-74
2023/12/15 00:57:04;;;;;;;;;;;12.90;99.90;;;;;;5112397;28;19908;-75
2023/12/15 00:59:30;;;;;;;;;;;12.90;99.90;;;;;;5093900;28;20352;-74
2023/12/15 01:01:56;;;;;;;;;;;12.90;99.90;;;;;;5112234;28;19994;-74
2023/12/15 01:04:21;;;;;;;;;;;12.90;99.90;;;;;;5112127;28;20229;-75
2023/12/15 01:06:47;;;;;;;;;;;12.90;99.90;;;;;;5112161;28;19908;-74
2023/12/15 01:09:13;;;;;;;;;;;12.90;99.90;;;;;;5112117;28;20361;-73
2023/12/15 01:11:39;;;;;;;;;;;12.90;99.90;;;;;;5093460;28;20016;-73
2023/12/15 01:14:04;;;;;;;;;;;12.90;99.90;;;;;;5111878;28;19919;-74
2023/12/15 01:16:30;;;;;;;;;;;12.90;99.90;;;;;;5111694;28;19908;-73
2023/12/15 01:18:56;;;;;;;;;;;12.90;99.90;;;;;;5111865;28;20064;-73
2023/12/15 01:21:22;;;;;;;;;;;12.90;99.90;;;;;;5111833;28;19912;-73
2023/12/15 01:23:48;;;;;;;;;;;12.90;99.90;;;;;;5111771;28;19907;-74
2023/12/15 01:26:14;;;;;;;;;;;12.80;99.90;;;;;;5111614;28;19911;-74
2023/12/15 01:28:39;;;;;;;;;;;12.80;99.90;;;;;;5112133;28;20300;-74
2023/12/15 01:31:05;;;;;;;;;;;12.80;99.90;;;;;;5092892;28;20336;-73
2023/12/15 01:33:32;;;;;;;;;;;13.00;99.90;;;;;;5111218;28;19957;-73
2023/12/15 01:35:58;;;;;;;;;;;13.00;99.90;;;;;;5111613;28;19995;-73
2023/12/15 01:38:23;;;;;;;;;;;13.00;99.90;;;;;;5111609;28;20046;-74
2023/12/15 01:40:49;;;;;;;;;;;13.10;99.90;;;;;;5111641;28;19911;-74
2023/12/15 01:43:15;;;;;;;;;;;13.10;99.90;;;;;;5111288;28;19908;-73
2023/12/15 01:45:41;;;;;;;;;;;13.00;99.90;;;;;;5111444;28;20001;-78
2023/12/15 01:48:07;;;;;;;;;;;13.00;99.90;;;;;;5112734;28;20228;-77
2023/12/15 01:50:33;;;;;;;;;;;13.10;99.90;;;;;;5111892;28;19918;-75
2023/12/15 01:52:58;;;;;;;;;;;13.10;99.90;;;;;;5111857;28;19908;-78
2023/12/15 01:55:24;;;;;;;;;;;13.10;99.90;;;;;;5111821;28;19908;-77
2023/12/15 01:57:50;;;;;;;;;;;13.10;99.90;;;;;;5112454;28;20217;-78
2023/12/15 02:00:17;;;;;;;;;;;13.10;99.90;;;;;;5111627;28;19923;-77
2023/12/15 02:02:43;;;;;;;;;;;13.00;99.90;;;;;;5112026;28;19989;-78
2023/12/15 02:05:09;;;;;;;;;;;13.10;99.90;;;;;;5112064;28;20329;-78
2023/12/15 02:07:35;;;;;;;;;;;13.10;99.90;;;;;;5093039;28;19908;-77
2023/12/15 02:10:01;;;;;;;;;;;13.10;99.90;;;;;;5111582;28;19934;-79
2023/12/15 02:12:26;;;;;;;;;;;13.20;99.90;;;;;;5111265;28;19908;-78
2023/12/15 02:14:52;;;;;;;;;;;13.20;99.90;;;;;;5111251;28;20375;-77
2023/12/15 02:17:18;;;;;;;;;;;13.20;99.90;;;;;;5110012;28;19912;-77
2023/12/15 02:19:44;;;;;;;;;;;13.20;99.90;;;;;;5126638;28;19924;-79
2023/12/15 02:22:10;;;;;;;;;;;13.20;99.90;;;;;;5111059;28;20282;-79
2023/12/15 02:24:37;;;;;;;;;;;13.10;99.90;;;;;;5111522;28;20302;-79
2023/12/15 02:27:03;;;;;;;;;;;13.20;99.90;;;;;;5111270;28;20379;-80
2023/12/15 02:29:30;;;;;;;;;;;13.30;99.90;;;;;;5111219;28;19907;-79
2023/12/15 02:31:56;;;;;;;;;;;13.30;99.90;;;;;;5111703;28;19920;-79
2023/12/15 02:34:24;;;;;;;;;;;13.40;99.90;;;;;;5111025;28;19969;-80
2023/12/15 02:36:51;;;;;;;;;;;13.40;99.90;;;;;;5092856;28;19912;-80
2023/12/15 02:39:17;;;;;;;;;;;13.40;99.90;;;;;;5111248;28;19927;-80
2023/12/15 02:41:44;;;;;;;;;;;13.30;99.90;;;;;;5092761;28;19919;-79
2023/12/15 02:44:10;;;;;;;;;;;13.30;99.90;;;;;;5112522;28;19972;-80
2023/12/15 02:46:37;;;;;;;;;;;13.30;99.90;;;;;;5115600;28;20377;-80
2023/12/15 02:49:02;;;;;;;;;;;13.30;99.90;;;;;;5115713;28;19912;-80
2023/12/15 02:51:29;;;;;;;;;;;13.30;99.90;;;;;;5115162;28;20011;-80
2023/12/15 02:53:57;;;;;;;;;;;13.20;99.90;;;;;;5115362;28;19908;-80
2023/12/15 02:56:24;;;;;;;;;;;13.10;99.90;;;;;;5115052;28;19916;-80
2023/12/15 02:58:50;;;;;;;;;;;13.10;99.90;;;;;;5096757;28;19967;-80
2023/12/15 03:01:16;;;;;;;;;;;13.00;99.90;;;;;;5115237;28;19908;-81
2023/12/15 03:03:41;;;;;;;;;;;13.00;99.90;;;;;;5096122;28;19907;-80
2023/12/15 03:06:07;;;;;;;;;;;13.00;99.90;;;;;;5114986;28;19926;-79
2023/12/15 03:08:33;;;;;;;;;;;12.90;99.90;;;;;;5096542;28;19908;-77
2023/12/15 03:10:59;;;;;;;;;;;12.80;99.90;;;;;;5117660;28;19919;-80
2023/12/15 03:13:25;;;;;;;;;;;12.70;99.90;;;;;;5097894;28;20312;-80
2023/12/15 03:15:51;;;;;;;;;;;12.60;99.90;;;;;;5115683;28;19907;-81
2023/12/15 03:18:17;;;;;;;;;;;12.60;99.90;;;;;;5095554;28;19934;-80
2023/12/15 03:20:46;;;;;;;;;;;12.50;99.90;;;;;;5096334;28;20316;-79
2023/12/15 03:23:11;;;;;;;;;;;12.50;99.90;;;;;;5114570;28;19961;-81
2023/12/15 03:25:37;;;;;;;;;;;12.50;99.90;;;;;;5114922;28;19908;-80
2023/12/15 03:28:03;;;;;;;;;;;12.60;99.90;;;;;;5129723;27;19907;-80
2023/12/15 03:30:29;;;;;;;;;;;12.60;99.90;;;;;;5094907;28;19927;-79
2023/12/15 03:32:55;;;;;;;;;;;12.60;99.90;;;;;;5112778;28;20054;-81
2023/12/15 03:35:20;;;;;;;;;;;12.70;99.90;;;;;;5113789;28;20278;-77
2023/12/15 03:37:46;;;;;;;;;;;12.60;99.90;;;;;;5114331;28;19908;-80
2023/12/15 03:40:12;;;;;;;;;;;12.60;99.90;;;;;;5114266;28;19923;-79
2023/12/15 03:42:38;;;;;;;;;;;12.60;99.90;;;;;;5114086;28;19998;-80
2023/12/15 03:45:04;;;;;;;;;;;12.50;99.90;;;;;;5110477;28;20382;-80
2023/12/15 03:47:31;;;;;;;;;;;12.60;99.90;;;;;;5092392;28;20100;-80
2023/12/15 03:49:56;;;;;;;;;;;12.60;99.90;;;;;;5114211;28;19908;-78
2023/12/15 03:52:25;;;;;;;;;;;12.60;99.90;;;;;;5114357;28;20328;-77
2023/12/15 03:54:51;;;;;;;;;;;12.60;99.90;;;;;;5113959;28;20372;-80
2023/12/15 03:57:16;;;;;;;;;;;12.60;99.90;;;;;;5114397;28;19951;-80
2023/12/15 03:59:42;;;;;;;;;;;12.60;99.90;;;;;;5114401;28;19927;-78
2023/12/15 04:02:12;;;;;;;;;;;12.50;99.90;;;;;;5114328;28;19973;-80
2023/12/15 04:04:38;;;;;;;;;;;12.40;99.90;;;;;;5114120;28;19907;-81
2023/12/15 04:07:04;;;;;;;;;;;12.40;99.90;;;;;;5114025;28;19908;-80
2023/12/15 04:09:29;;;;;;;;;;;12.30;99.90;;;;;;5114178;28;19916;-81
2023/12/15 04:11:55;;;;;;;;;;;12.30;99.90;;;;;;5113962;28;19908;-81
2023/12/15 04:14:21;;;;;;;;;;;12.30;99.90;;;;;;5114315;28;20008;-80
2023/12/15 04:16:47;;;;;;;;;;;12.30;99.90;;;;;;5113504;28;20413;-78
2023/12/15 04:19:13;;;;;;;;;;;12.20;99.90;;;;;;5095124;28;19923;-81
2023/12/15 04:21:38;;;;;;;;;;;12.10;99.90;;;;;;5111327;28;19907;-81
2023/12/15 04:24:04;;;;;;;;;;;12.10;99.90;;;;;;5114339;28;19915;-80
2023/12/15 04:26:30;;;;;;;;;;;12.00;99.90;;;;;;5114109;28;19907;-81
2023/12/15 04:28:56;;;;;;;;;;;11.90;99.90;;;;;;5115251;28;20332;-80
2023/12/15 04:31:22;;;;;;;;;;;11.90;99.90;;;;;;5114267;28;19923;-80
2023/12/15 04:33:48;;;;;;;;;;;11.90;99.90;;;;;;5095838;28;19915;-81
2023/12/15 04:36:16;;;;;;;;;;;11.80;99.90;;;;;;5114790;28;19908;-81
2023/12/15 04:38:42;;;;;;;;;;;11.70;99.90;;;;;;5114035;28;19916;-79
2023/12/15 04:41:15;;;;;;;;;;;11.70;99.90;;;;;;5114238;28;19918;-80
2023/12/15 04:43:41;;;;;;;;;;;11.60;99.90;;;;;;5114568;28;19954;-81
2023/12/15 04:46:07;;;;;;;;;;;11.60;99.90;;;;;;5114084;28;19951;-80
2023/12/15 04:48:33;;;;;;;;;;;11.60;99.90;;;;;;5114426;28;19911;-79
2023/12/15 04:50:59;;;;;;;;;;;11.60;99.90;;;;;;5113979;28;19965;-81
2023/12/15 04:53:24;;;;;;;;;;;11.50;99.90;;;;;;5114496;28;19908;-80
2023/12/15 04:55:50;;;;;;;;;;;11.50;99.90;;;;;;5114355;28;19916;-82
2023/12/15 04:58:16;;;;;;;;;;;11.60;99.90;;;;;;5113930;28;20275;-80
2023/12/15 05:00:43;;;;;;;;;;;11.60;99.90;;;;;;5113858;28;19916;-80
2023/12/15 05:03:08;;;;;;;;;;;11.70;99.90;;;;;;5114435;28;19907;-79
2023/12/15 05:05:34;;;;;;;;;;;11.70;99.90;;;;;;5114403;28;20010;-79
2023/12/15 05:08:00;;;;;;;;;;;11.70;99.90;;;;;;5113788;28;19908;-80
2023/12/15 05:10:26;;;;;;;;;;;11.80;99.90;;;;;;5114209;28;20279;-80
2023/12/15 05:12:51;;;;;;;;;;;11.80;99.90;;;;;;5113907;28;19917;-80
2023/12/15 05:15:17;;;;;;;;;;;11.90;99.90;;;;;;5113906;28;19915;-79
2023/12/15 05:17:43;;;;;;;;;;;11.90;99.90;;;;;;5114188;28;20363;-79
2023/12/15 05:20:10;;;;;;;;;;;11.90;99.90;;;;;;5114175;28;19922;-79
2023/12/15 05:22:36;;;;;;;;;;;11.90;99.90;;;;;;5096302;28;19908;-80
2023/12/15 05:25:02;;;;;;;;;;;12.00;99.90;;;;;;5114726;28;19908;-80
2023/12/15 05:27:27;;;;;;;;;;;11.90;99.90;;;;;;5114916;28;19911;-80
2023/12/15 05:29:53;;;;;;;;;;;12.00;99.90;;;;;;5114737;28;19914;-79
2023/12/15 05:32:24;;;;;;;;;;;12.00;99.90;;;;;;5095868;28;19969;-72
2023/12/15 05:34:49;;;;;;;;;;;12.00;99.90;;;;;;5095869;28;19912;-75
2023/12/15 05:37:16;;;;;;;;;;;12.00;99.90;;;;;;5121443;27;19907;-75
2023/12/15 05:39:44;;;;;;;;;;;11.90;99.90;;;;;;5113856;28;19971;-74
2023/12/15 05:42:10;;;;;;;;;;;12.00;99.90;;;;;;5111212;28;19916;-77
2023/12/15 05:44:39;;;;;;;;;;;11.90;99.90;;;;;;5114441;28;20355;-80
2023/12/15 05:47:06;;;;;;;;;;;11.90;99.90;;;;;;5114577;28;19998;-80
2023/12/15 05:49:34;;;;;;;;;;;11.90;99.90;;;;;;5114413;28;20007;-80
2023/12/15 05:51:59;;;;;;;;;;;11.90;99.90;;;;;;5118421;27;19912;-80
2023/12/15 05:54:25;;;;;;;;;;;11.80;99.90;;;;;;5115154;28;20049;-81
2023/12/15 05:56:51;;;;;;;;;;;11.80;99.90;;;;;;5114613;28;19908;-82
2023/12/15 05:59:17;;;;;;;;;;;11.80;99.90;;;;;;5114392;28;20016;-81
2023/12/15 06:01:43;;;;;;;;;;;11.80;99.90;;;;;;5114676;28;20003;-81
2023/12/15 06:04:09;;;;;;;;;;;11.80;99.90;;;;;;5115814;28;19914;-79
2023/12/15 06:06:35;;;;;;;;;;;11.80;99.90;;;;;;5114466;28;19946;-80
2023/12/15 06:09:02;;;;;;;;;;;11.80;99.90;;;;;;5114073;28;20298;-79
2023/12/15 06:11:28;;;;;;;;;;;11.80;99.90;;;;;;5113873;28;19908;-82
2023/12/15 06:13:54;;;;;;;;;;;11.70;99.90;;;;;;5115219;28;19914;-79
2023/12/15 06:16:20;;;;;;;;;;;11.70;99.90;;;;;;5095045;28;19908;-78
2023/12/15 06:18:46;;;;;;;;;;;11.70;99.90;;;;;;5097332;28;19912;-77
2023/12/15 06:21:22;;;;;;;;;;;11.70;99.90;;;;;;5118455;28;20359;-77
2023/12/15 06:23:48;;;;;;;;;;;11.80;99.90;;;;;;5099669;28;19907;-78
2023/12/15 06:26:20;;;;;;;;;;;11.90;99.90;;;;;;5118444;28;20405;-78
2023/12/15 06:28:46;;;;;;;;;;;12.00;99.90;;;;;;5117365;28;19959;-77
2023/12/15 06:31:13;;;;;;;;;;;12.10;99.90;;;;;;5116500;28;19912;-76
2023/12/15 06:33:39;;;;;;;;;;;12.40;99.90;;;;;;5117190;28;19915;-75
2023/12/15 06:36:05;;;;;;;;;;;12.50;99.90;;;;;;5117214;28;19915;-76
2023/12/15 06:38:31;;;;;;;;;;;12.80;99.90;;;;;;5117712;28;20023;-75
2023/12/15 06:40:57;;;;;;;;;;;13.10;99.90;;;;;;5117406;28;20366;-75
2023/12/15 06:43:23;;;;;;;;;;;13.50;99.90;;;;;;5117528;28;20006;-76
2023/12/15 06:45:50;;;;;;;;;;;13.80;99.90;;;;;;5116919;28;19907;-77
2023/12/15 06:48:16;;;;;;;;;;;14.00;99.90;;;;;;5116452;28;20075;-76
2023/12/15 06:50:42;;;;;;;;;;;13.90;99.90;;;;;;5098437;28;19912;-82
2023/12/15 06:53:07;;;;;;;;;;;13.80;99.90;;;;;;5097929;28;20272;-80
2023/12/15 06:55:34;;;;;;;;;;;13.60;99.90;;;;;;5116264;28;19976;-75
2023/12/15 06:58:00;;;;;;;;;;;13.40;99.90;;;;;;5116382;28;19907;-74
2023/12/15 07:00:26;;;;;;;;;;;13.40;99.90;;;;;;5115201;28;19934;-73
2023/12/15 07:02:52;;;;;;;;;;;13.40;99.90;;;;;;5115821;28;19908;-74
2023/12/15 07:05:18;;;;;;;;;;;13.40;99.90;;;;;;5097697;28;19908;-74
2023/12/15 07:07:43;;;;;;;;;;;13.50;99.90;;;;;;5116387;28;19973;-75
2023/12/15 07:10:09;;;;;;;;;;;13.50;99.90;;;;;;5115712;28;19909;-75
2023/12/15 07:12:37;;;;;;;;;;;13.80;99.90;;;;;;5115314;28;20116;-75
2023/12/15 07:15:02;;;;;;;;;;;14.20;99.90;;;;;;5096909;28;19950;-72
2023/12/15 07:17:28;;;;;;;;;;;15.00;99.90;;;;;;5115497;28;20257;-74
2023/12/15 07:19:54;;;;;;;;;;;15.30;99.90;;;;;;5116627;28;20339;-75
2023/12/15 07:22:20;;;;;;;;;;;15.90;99.90;;;;;;5115682;28;19908;-76
2023/12/15 07:24:46;;;;;;;;;;;16.50;99.90;;;;;;5097701;28;19908;-76
2023/12/15 07:27:12;;;;;;;;;;;17.30;99.90;;;;;;5115345;28;19968;-77
2023/12/15 07:29:39;;;;;;;;;;;17.40;99.90;;;;;;5115486;28;20344;-76
2023/12/15 07:32:05;;;;;;;;;;;17.20;99.90;;;;;;5114960;28;20044;-82
2023/12/15 07:34:31;;;;;;;;;;;16.90;99.90;;;;;;5097116;28;19928;-74
2023/12/15 07:36:56;;;;;;;;;;;16.40;99.90;;;;;;5114952;28;19908;-76
2023/12/15 07:39:22;;;;;;;;;;;16.50;99.90;;;;;;5115432;28;20021;-76
2023/12/15 07:41:49;;;;;;;;;;;16.30;99.90;;;;;;5115078;28;19915;-70
2023/12/15 07:44:15;;;;;;;;;;;15.70;99.90;;;;;;5115901;28;19915;-73
2023/12/15 07:46:41;;;;;;;;;;;15.20;99.90;;;;;;5115015;28;19937;-78
2023/12/15 07:49:08;;;;;;;;;;;14.90;99.90;;;;;;5115363;28;19908;-78
2023/12/15 07:51:34;;;;;;;;;;;14.40;99.90;;;;;;5117871;28;20268;-77
2023/12/15 07:54:00;;;;;;;;;;;14.50;99.90;;;;;;5097878;28;19907;-78
2023/12/15 07:56:27;;;;;;;;;;;14.80;99.90;;;;;;5115726;28;20240;-79
2023/12/15 07:58:55;;;;;;;;;;;15.00;99.90;;;;;;5115369;28;19920;-77
2023/12/15 08:01:21;;;;;;;;;;;14.60;99.90;;;;;;5096304;28;19908;-80
2023/12/15 08:03:47;;;;;;;;;;;14.60;99.90;;;;;;5115254;28;20014;-76
2023/12/15 08:06:14;;;;;;;;;;;14.50;99.90;;;;;;5114868;28;20371;-77
2023/12/15 08:08:43;;;;;;;;;;;14.40;99.90;;;;;;5113950;28;19924;-79
2023/12/15 08:11:10;;;;;;;;;;;14.50;99.90;;;;;;5114873;28;19908;-79
2023/12/15 08:13:36;;;;;;;;;;;14.50;99.90;;;;;;5114561;28;20006;-77
2023/12/15 08:16:03;;;;;;;;;;;14.60;99.90;;;;;;5096079;28;19908;-77
2023/12/15 08:18:29;;;;;;;;;;;14.80;99.90;;;;;;5114483;28;19908;-78
2023/12/15 08:20:55;;;;;;;;;;;15.00;99.90;;;;;;5114803;28;20022;-79
2023/12/15 08:23:21;;;;;;;;;;;15.10;99.90;;;;;;5096477;28;19935;-78
2023/12/15 08:25:47;;;;;;;;;;;15.10;99.90;;;;;;5096158;28;20004;-79
2023/12/15 08:28:13;;;;;;;;;;;15.10;99.90;;;;;;5114645;28;20279;-79
2023/12/15 08:30:39;;;;;;;;;;;15.20;99.90;;;;;;5095897;28;19951;-79
2023/12/15 08:33:06;;;;;;;;;;;15.30;99.90;;;;;;5113754;28;19920;-78
2023/12/15 08:35:31;;;;;;;;;;;15.40;99.90;;;;;;5114518;28;19912;-79
2023/12/15 08:37:58;;;;;;;;;;;15.30;99.90;;;;;;5114364;28;20224;-78
2023/12/15 08:40:24;;;;;;;;;;;15.20;99.90;;;;;;5114890;28;19947;-79
2023/12/15 08:42:50;;;;;;;;;;;15.10;99.90;;;;;;5113168;28;20346;-79
2023/12/15 08:45:16;;;;;;;;;;;15.10;99.90;;;;;;5095534;28;20018;-78
2023/12/15 08:47:42;;;;;;;;;;;15.00;99.90;;;;;;5114249;28;20236;-79
2023/12/15 08:50:08;;;;;;;;;;;15.20;99.90;;;;;;5114037;28;19908;-79
2023/12/15 08:52:34;;;;;;;;;;;15.30;99.90;;;;;;5075467;28;20021;-78
2023/12/15 08:54:59;;;;;;;;;;;15.40;99.90;;;;;;5093363;28;19908;-77
2023/12/15 08:57:25;;;;;;;;;;;15.40;99.90;;;;;;5093394;28;19931;-79
2023/12/15 08:59:51;;;;;;;;;;;15.40;99.90;;;;;;5090727;28;19963;-77
2023/12/15 09:02:17;;;;;;;;;;;15.40;99.90;;;;;;5091211;28;20318;-79
2023/12/15 09:04:43;;;;;;;;;;;15.30;99.90;;;;;;5092876;28;19999;-78
2023/12/15 09:07:09;;;;;;;;;;;15.30;99.90;;;;;;5073967;28;20380;-79
2023/12/15 09:09:35;;;;;;;;;;;15.40;99.90;;;;;;5092078;28;19955;-78
2023/12/15 09:12:01;;;;;;;;;;;15.60;99.90;;;;;;5092110;28;19912;-78
2023/12/15 09:14:29;;;;;;;;;;;15.70;99.90;;;;;;5092250;28;19951;-79
2023/12/15 09:16:55;;;;;;;;;;;15.70;99.90;;;;;;5092214;28;19912;-78
2023/12/15 09:19:21;;;;;;;;;;;15.90;99.90;;;;;;5092765;28;19916;-80
2023/12/15 09:21:47;;;;;;;;;;;16.00;99.90;;;;;;5106785;28;20405;-80
2023/12/15 09:24:17;;;;;;;;;;;16.00;99.90;;;;;;5095322;28;19991;-79
2023/12/15 09:26:44;;;;;;;;;;;16.00;99.90;;;;;;5113297;28;19960;-79
2023/12/15 09:29:10;;;;;;;;;;;16.10;99.90;;;;;;5113793;28;19915;-77
2023/12/15 09:31:37;;;;;;;;;;;16.10;99.90;;;;;;5112741;28;19966;-78
2023/12/15 09:34:03;;;;;;;;;;;15.90;99.90;;;;;;5095799;28;20276;-78
2023/12/15 09:36:28;;;;;;;;;;;15.80;99.90;;;;;;5092021;28;19908;-78
2023/12/15 09:38:54;;;;;;;;;;;15.80;99.90;;;;;;5091801;28;19928;-79
2023/12/15 09:41:20;;;;;;;;;;;15.70;99.90;;;;;;5092013;28;20003;-78
2023/12/15 09:43:46;;;;;;;;;;;15.80;99.90;;;;;;5091636;28;19923;-78
2023/12/15 09:46:12;;;;;;;;;;;15.90;99.90;;;;;;5091679;28;20031;-77
2023/12/15 09:48:38;;;;;;;;;;;16.00;99.90;;;;;;5091328;28;19971;-78
2023/12/15 09:51:09;;;;;;;;;;;16.00;99.90;;;;;;5080094;28;19912;-77
2023/12/15 09:53:36;;;;;;;;;;;16.00;99.90;;;;;;5111844;28;20385;-78
2023/12/15 09:56:02;;;;;;;;;;;16.10;99.90;;;;;;5112226;28;19908;-78
2023/12/15 09:58:28;;;;;;;;;;;16.20;99.90;;;;;;5094021;28;19951;-78
2023/12/15 10:01:00;;;;;;;;;;;16.50;99.90;;;;;;5112654;28;19943;-78
2023/12/15 10:03:25;;;;;;;;;;;16.80;99.90;;;;;;5100450;28;19999;-78
2023/12/15 10:05:51;;;;;;;;;;;17.20;99.90;;;;;;5073881;28;19915;-78
2023/12/15 10:08:22;;;;;;;;;;;17.20;99.90;;;;;;5073940;28;19951;-78
2023/12/15 10:10:48;;;;;;;;;;;17.30;99.90;;;;;;5092722;28;19912;-78
2023/12/15 10:13:14;;;;;;;;;;;17.40;99.90;;;;;;5092170;28;20011;-78
2023/12/15 10:15:59;;;;;;;;;;;17.50;99.90;;;;;;5092564;28;19980;-78
2023/12/15 10:18:24;;;;;;;;;;;17.80;99.90;;;;;;5092125;28;19912;-78
2023/12/15 10:20:50;;;;;;;;;;;18.00;99.90;;;;;;5097820;28;19916;-79
2023/12/15 10:23:25;;;;;;;;;;;17.70;99.90;;;;;;5112516;28;19912;-78
2023/12/15 10:25:51;;;;;;;;;;;17.60;99.90;;;;;;5112739;28;19961;-79
2023/12/15 10:28:17;;;;;;;;;;;17.30;99.90;;;;;;5112188;28;19908;-78
2023/12/15 10:30:43;;;;;;;;;;;17.10;99.90;;;;;;5112107;28;19984;-78
2023/12/15 10:33:08;;;;;;;;;;;17.00;99.90;;;;;;5084145;28;20380;-77
2023/12/15 10:35:36;;;;;;;;;;;16.80;99.90;;;;;;5092155;28;20265;-78
2023/12/15 10:38:02;;;;;;;;;;;16.60;99.90;;;;;;5091877;28;20325;-79
2023/12/15 10:40:28;;;;;;;;;;;16.70;99.90;;;;;;5090905;28;19999;-78
2023/12/15 10:42:56;;;;;;;;;;;16.80;99.90;;;;;;5092084;28;20007;-79
2023/12/15 10:45:22;;;;;;;;;;;17.10;99.90;;;;;;5092119;28;19995;-78
2023/12/15 10:47:49;;;;;;;;;;;17.50;99.90;;;;;;5091833;28;19908;-79
2023/12/15 10:50:15;;;;;;;;;;;17.50;99.90;;;;;;5091903;28;19915;-80
2023/12/15 10:52:44;;;;;;;;;;;17.60;99.90;;;;;;5112537;28;19960;-79
2023/12/15 10:55:11;;;;;;;;;;;17.70;99.90;;;;;;5093989;28;19993;-80
2023/12/15 10:57:41;;;;;;;;;;;17.40;99.90;;;;;;5112302;28;20027;-77
2023/12/15 11:00:07;;;;;;;;;;;17.40;99.90;;;;;;5111810;28;20287;-79
2023/12/15 11:02:34;;;;;;;;;;;17.50;99.90;;;;;;5063660;28;19923;-78
2023/12/15 11:05:00;;;;;;;;;;;17.50;99.90;;;;;;5073882;28;19916;-80
2023/12/15 11:07:29;;;;;;;;;;;17.50;99.90;;;;;;5077117;28;19969;-81
2023/12/15 11:09:56;;;;;;;;;;;17.30;99.90;;;;;;5079409;28;19988;-77
2023/12/15 11:12:30;;;;;;;;;;;17.10;99.90;;;;;;5095730;28;20416;-79
2023/12/15 11:14:59;;;;;;;;;;;17.20;99.90;;;;;;5094752;28;19985;-79
2023/12/15 11:17:28;;;;;;;;;;;17.10;99.90;;;;;;5076476;28;20348;-78
2023/12/15 11:20:09;;;;;;;;;;;17.00;99.90;;;;;;5094330;28;19967;-77
2023/12/15 11:22:42;;;;;;;;;;;17.00;99.90;;;;;;5114488;28;19911;-78
2023/12/15 11:25:15;;;;;;;;;;;17.00;99.90;;;;;;5115510;28;20022;-74
2023/12/15 11:28:01;;;;;;;;;;;17.10;99.90;;;;;;5097068;28;19908;-78
2023/12/15 11:30:31;;;;;;;;;;;17.00;99.90;;;;;;5086600;28;19908;-79
2023/12/15 11:32:57;;;;;;;;;;;17.00;99.90;;;;;;5096129;28;19923;-79
2023/12/15 11:35:32;;;;;;;;;;;17.10;99.90;;;;;;5115022;28;19920;-78
2023/12/15 11:37:58;;;;;;;;;;;16.90;99.90;;;;;;5096362;28;19953;-78
2023/12/15 11:40:25;;;;;;;;;;;16.80;99.90;;;;;;5115245;28;19973;-79
2023/12/15 11:42:52;;;;;;;;;;;16.80;99.90;;;;;;5115013;28;19912;-78
2023/12/15 11:45:18;;;;;;;;;;;16.70;99.90;;;;;;5115091;28;19908;-77
2023/12/15 11:47:44;;;;;;;;;;;16.50;99.90;;;;;;5115093;28;19923;-78
2023/12/15 11:50:10;;;;;;;;;;;16.40;99.90;;;;;;5114537;28;20026;-79
2023/12/15 11:52:41;;;;;;;;;;;16.50;99.90;;;;;;5095878;28;19916;-78
2023/12/15 11:55:07;;;;;;;;;;;16.50;99.90;;;;;;5096130;28;19912;-78
2023/12/15 11:57:35;;;;;;;;;;;16.50;99.90;;;;;;5114190;28;20394;-78
2023/12/15 12:00:22;;;;;;;;;;;16.40;99.90;;;;;;5114385;28;19916;-80
2023/12/15 12:02:48;;;;;;;;;;;16.50;99.90;;;;;;5095823;28;19908;-79
2023/12/15 12:05:14;;;;;;;;;;;16.40;99.90;;;;;;5095778;28;19911;-78
2023/12/15 12:07:43;;;;;;;;;;;16.30;99.90;;;;;;5114446;28;19915;-80
2023/12/15 12:10:10;;;;;;;;;;;16.50;99.90;;;;;;5114675;28;19998;-80
2023/12/15 12:12:37;;;;;;;;;;;16.50;99.90;;;;;;5114241;28;19908;-77
2023/12/15 12:15:07;;;;;;;;;;;16.70;99.90;;;;;;5096109;28;19957;-80
2023/12/15 12:17:34;;;;;;;;;;;16.90;99.90;;;;;;5114475;28;19965;-79
2023/12/15 12:20:06;;;;;;;;;;;16.80;99.90;;;;;;5115619;28;20351;-76
2023/12/15 12:22:38;;;;;;;;;;;16.90;99.90;;;;;;5115136;28;20327;-77
2023/12/15 12:25:04;;;;;;;;;;;16.90;99.90;;;;;;5096373;28;19994;-77
2023/12/15 12:27:32;;;;;;;;;;;17.00;99.90;;;;;;5114944;28;20221;-80
2023/12/15 12:29:59;;;;;;;;;;;17.00;99.90;;;;;;5096324;28;19987;-79
2023/12/15 12:32:25;;;;;;;;;;;16.70;99.90;;;;;;5082656;28;20031;-79
2023/12/15 12:34:51;;;;;;;;;;;16.80;99.90;;;;;;5094717;28;19936;-79
2023/12/15 12:37:17;;;;;;;;;;;16.70;99.90;;;;;;5094673;28;19909;-79
2023/12/15 12:39:43;;;;;;;;;;;16.50;99.90;;;;;;5094557;28;19923;-77
2023/12/15 12:42:09;;;;;;;;;;;16.40;99.90;;;;;;5095381;28;19908;-79
2023/12/15 12:44:35;;;;;;;;;;;16.40;99.90;;;;;;5097043;28;19920;-79
2023/12/15 12:47:10;;;;;;;;;;;16.40;99.90;;;;;;5075435;28;20303;-79
2023/12/15 12:49:36;;;;;;;;;;;16.40;99.90;;;;;;5075796;28;20041;-78
2023/12/15 12:52:01;;;;;;;;;;;16.50;99.90;;;;;;5094176;28;20130;-78
2023/12/15 12:54:27;;;;;;;;;;;16.40;99.90;;;;;;5094562;28;20342;-77
2023/12/15 12:56:53;;;;;;;;;;;16.50;99.90;;;;;;5094080;28;19908;-79
2023/12/15 12:59:20;;;;;;;;;;;16.80;99.90;;;;;;5075906;28;20314;-78
2023/12/15 13:01:46;;;;;;;;;;;16.70;99.90;;;;;;5093939;28;20022;-78
2023/12/15 13:04:12;;;;;;;;;;;16.90;99.90;;;;;;5076368;28;19955;-78
2023/12/15 13:06:38;;;;;;;;;;;17.00;99.90;;;;;;5094282;28;20284;-79
2023/12/15 13:09:04;;;;;;;;;;;17.10;99.90;;;;;;5075981;28;20326;-77
2023/12/15 13:11:30;;;;;;;;;;;17.40;99.90;;;;;;5094439;28;19938;-79
2023/12/15 13:13:55;;;;;;;;;;;17.60;99.90;;;;;;5075396;28;19927;-78
2023/12/15 13:16:22;;;;;;;;;;;17.60;99.90;;;;;;5093387;28;20007;-77
2023/12/15 13:18:49;;;;;;;;;;;17.40;99.90;;;;;;5075903;28;20356;-76
2023/12/15 13:21:15;;;;;;;;;;;17.50;99.90;;;;;;5094328;28;19934;-78
2023/12/15 13:23:42;;;;;;;;;;;17.40;99.90;;;;;;5076093;28;19908;-72
2023/12/15 13:26:10;;;;;;;;;;;17.10;99.90;;;;;;5094011;28;19908;-77
2023/12/15 13:28:38;;;;;;;;;;;16.70;99.90;;;;;;5094010;28;19931;-77
2023/12/15 13:31:05;;;;;;;;;;;16.50;99.90;;;;;;5077817;28;19916;-77
2023/12/15 13:33:31;;;;;;;;;;;16.50;99.90;;;;;;5114404;28;19911;-78
2023/12/15 13:35:57;;;;;;;;;;;16.40;99.90;;;;;;5096016;28;20022;-78
2023/12/15 13:38:24;;;;;;;;;;;16.20;99.90;;;;;;5114734;28;19912;-78
2023/12/15 13:40:50;;;;;;;;;;;15.90;99.90;;;;;;5114310;28;20368;-77
2023/12/15 13:43:15;;;;;;;;;;;15.40;99.90;;;;;;5114771;28;19908;-78
2023/12/15 13:45:41;;;;;;;;;;;15.20;99.90;;;;;;5095925;28;20007;-78
2023/12/15 13:48:07;;;;;;;;;;;15.10;99.90;;;;;;5114111;28;19912;-77
2023/12/15 13:50:33;;;;;;;;;;;15.00;99.90;;;;;;5113596;28;19912;-78
2023/12/15 13:52:59;;;;;;;;;;;15.10;99.90;;;;;;5113905;28;20002;-78
2023/12/15 13:55:25;;;;;;;;;;;15.10;99.90;;;;;;5112573;28;19911;-78
2023/12/15 13:57:51;;;;;;;;;;;15.10;99.90;;;;;;5095223;28;20404;-78
2023/12/15 14:00:18;;;;;;;;;;;15.00;99.90;;;;;;5113552;28;19923;-79
2023/12/15 14:02:44;;;;;;;;;;;15.00;99.90;;;;;;5107546;28;19912;-78
2023/12/15 14:05:10;;;;;;;;;;;14.90;99.90;;;;;;5075474;28;20237;-77
2023/12/15 14:07:36;;;;;;;;;;;14.90;99.90;;;;;;5092030;28;19938;-78
2023/12/15 14:10:05;;;;;;;;;;;14.80;99.90;;;;;;5074805;28;19908;-77
2023/12/15 14:12:31;;;;;;;;;;;14.80;99.90;;;;;;5092958;28;19989;-78